< < Back
Terminal Aerodrome Forecast


Current Version              Previous Versions:   1  2  3  4  5  6  7  8  9  

Terminal Aerodrome Forecast

339
FTUS42 KCHS 250523
TAFCHS
TAF
KCHS 250523Z 2506/2606 05004KT P6SM FEW025
     FM251600 08010G15KT P6SM SCT050 BKN250
     FM260000 10004KT P6SM SKC=



Latest METAR

355
SAUS80 KWBC 250700 RRA
MTRCHS
METAR KCHS 250656Z 34004KT 10SM CLR 21/18 A3014 RMK AO2 SLP205
T02060183


USA.gov is the U.S. government's official web portal to all federal, state and local government web resources and services.